Time;durP1;ratioP1;P1;durP2;ratioP2;P2;SDS_P1;SDS_P2;PMS_P1;PMS_P2;Temp;Humidity;BMP_temperature;BMP_pressure;BME280_temperature;BME280_humidity;BME280_pressure;Samples;Min_cycle;Max_cycle;Signal;HPM_P1;HPM_P2
2020/12/31 00:00:54;;;;;;;0.88;0.88;;;;;;;0.31;83.30;99135.53;4880999;29;20055;-78
2020/12/31 00:03:22;;;;;;;0.88;0.85;;;;;;;0.26;82.35;99117.38;4913996;29;20445;-78
2020/12/31 00:05:48;;;;;;;2.20;2.00;;;;;;;0.28;83.33;99119.88;4916599;29;20033;-81
2020/12/31 00:08:13;;;;;;;3.55;3.25;;;;;;;0.30;82.64;99133.88;4909595;29;20450;-78
2020/12/31 00:10:39;;;;;;;3.17;2.85;;;;;;;0.30;82.97;99115.06;4911783;29;20028;-76
2020/12/31 00:13:04;;;;;;;3.78;3.40;;;;;;;0.32;83.64;99116.47;4899607;29;20046;-77
2020/12/31 00:15:32;;;;;;;5.15;4.57;;;;;;;0.39;83.12;99127.13;4897817;29;20032;-78
2020/12/31 00:18:04;;;;;;;8.00;4.93;;;;;;;0.49;83.78;99138.13;4902595;29;20032;-78
2020/12/31 00:20:33;;;;;;;6.10;5.40;;;;;;;0.42;83.46;99117.78;4881277;29;20054;-77
2020/12/31 00:23:03;;;;;;;4.35;3.97;;;;;;;0.43;82.76;99131.00;4919797;29;20449;-79
2020/12/31 00:25:29;;;;;;;4.55;2.92;;;;;;;0.44;83.12;99124.56;4877831;29;20401;-78
2020/12/31 00:28:03;;;;;;;3.67;3.38;;;;;;;0.46;83.10;99127.03;4912542;29;20036;-79
2020/12/31 00:30:29;;;;;;;3.95;3.65;;;;;;;0.37;83.62;99112.28;4896275;29;20036;-80
2020/12/31 00:32:54;;;;;;;3.63;3.42;;;;;;;0.48;82.80;99131.13;4907367;29;20032;-80
2020/12/31 00:35:31;;;;;;;6.03;4.53;;;;;;;0.48;83.95;99131.13;4910674;29;20067;-82
2020/12/31 00:38:06;;;;;;;5.05;3.53;;;;;;;0.46;83.16;99127.03;4914206;29;20028;-82
2020/12/31 00:40:40;;;;;;;6.53;4.15;;;;;;;0.42;83.27;99121.28;4898607;29;20032;-81
2020/12/31 00:43:06;;;;;;;10.18;4.65;;;;;;;0.40;83.79;99115.31;4910229;29;20039;-81
2020/12/31 00:45:31;;;;;;;7.18;4.38;;;;;;;0.37;84.02;99104.22;4878904;29;20040;-80
2020/12/31 00:48:00;;;;;;;5.32;4.20;;;;;;;0.36;83.42;99111.44;4902952;29;20042;-81
2020/12/31 00:50:28;;;;;;;9.73;4.05;;;;;;;0.44;83.63;99124.56;4892298;29;20039;-79
2020/12/31 00:52:58;;;;;;;3.58;3.35;;;;;;;0.40;83.32;99120.69;4909422;29;20028;-80
2020/12/31 00:55:52;;;;;;;6.43;4.22;;;;;;;0.40;83.58;99122.56;4900066;29;20024;-79
2020/12/31 00:58:41;;;;;;;4.57;4.18;;;;;;;0.25;84.15;99104.16;4880247;29;20049;-79
2020/12/31 01:01:17;;;;;;;8.07;4.57;;;;;;;0.23;83.78;99104.41;4903393;29;20039;-82
2020/12/31 01:03:58;;;;;;;5.95;5.38;;;;;;;0.25;83.86;99112.22;4905219;29;20132;-82
2020/12/31 01:06:48;;;;;;;;;;;;;;;;;;;;;
2020/12/31 01:12:41;;;;;;;10.38;5.53;;;;;;;0.16;83.82;99117.97;4919650;29;20046;-81
2020/12/31 01:15:18;;;;;;;7.25;6.63;;;;;;;0.13;83.30;99117.59;4903232;29;20039;-83
2020/12/31 01:17:53;;;;;;;12.80;5.93;;;;;;;0.02;83.18;99110.31;4912130;29;20132;-80
2020/12/31 01:23:14;;;;;;;5.90;5.38;;;;;;;0.10;83.67;99135.00;4909378;29;20038;-83
2020/12/31 01:25:39;;;;;;;6.18;4.80;;;;;;;0.04;84.71;99125.16;4898100;29;20031;-82
2020/12/31 01:28:05;;;;;;;6.00;4.57;;;;;;;0.11;83.68;99139.31;4914790;29;20028;-83
2020/12/31 01:30:40;;;;;;;;;;;;;;;;;;;;;
2020/12/31 01:33:19;;;;;;;;;;;;;;;;;;;;;
2020/12/31 01:35:54;;;;;;;4.38;4.07;;;;;;;0.06;83.73;99120.38;4915272;29;20020;-75
2020/12/31 01:38:23;;;;;;;12.98;4.15;;;;;;;0.03;83.83;99118.16;4905698;29;20040;-76
2020/12/31 01:40:55;;;;;;;4.97;4.50;;;;;;;0.06;84.27;99131.13;4895074;29;20436;-76
2020/12/31 01:43:28;;;;;;;4.07;3.35;;;;;;;0.08;84.41;99137.09;4892547;29;20036;-78
2020/12/31 01:46:12;;;;;;;;;;;;;;;;;;;;;
2020/12/31 01:48:58;;;;;;;4.65;3.15;;;;;;;0.11;84.55;99157.31;4905623;29;20600;-79
2020/12/31 01:51:46;;;;;;;;;;;;;;;;;;;;;
2020/12/31 01:54:17;;;;;;;3.30;2.10;;;;;;;0.01;83.86;99147.13;4913575;29;20382;-74
2020/12/31 01:56:47;;;;;;;1.80;1.70;;;;;;;0.01;83.49;99152.50;4909902;29;20522;-75
2020/12/31 01:59:15;;;;;;;2.70;2.50;;;;;;;-0.02;83.79;99159.13;4899505;29;20032;-77
2020/12/31 02:01:43;;;;;;;3.53;2.65;;;;;;;-0.06;83.11;99151.75;4903453;29;20056;-76
2020/12/31 02:04:09;;;;;;;4.70;3.50;;;;;;;-0.05;84.04;99164.97;4912776;29;20032;-77
2020/12/31 02:06:39;;;;;;;4.28;3.78;;;;;;;-0.09;83.27;99169.19;4901823;29;20037;-74
2020/12/31 02:09:25;;;;;;;3.97;3.67;;;;;;;-0.16;84.12;99156.88;4906581;29;20052;-76
2020/12/31 02:12:03;;;;;;;;;;;;;;;;;;;;;
2020/12/31 02:14:42;;;;;;;4.03;3.70;;;;;;;-0.12;82.95;99174.19;4889810;29;20047;-75
2020/12/31 02:17:14;;;;;;;7.82;3.53;;;;;;;-0.26;83.60;99150.16;4893539;29;20024;-75
2020/12/31 02:19:42;;;;;;;3.85;3.60;;;;;;;-0.07;84.36;99185.09;4904292;29;20027;-74
2020/12/31 02:22:19;;;;;;;5.57;4.75;;;;;;;-0.06;83.49;99184.00;4900018;29;20215;-75
2020/12/31 02:24:47;;;;;;;4.60;3.65;;;;;;;-0.08;84.57;99186.94;4894829;29;20040;-76
2020/12/31 02:27:21;;;;;;;5.68;3.65;;;;;;;-0.19;83.78;99172.41;4890442;29;20537;-76
2020/12/31 02:29:51;;;;;;;6.57;4.43;;;;;;;-0.14;83.76;99177.09;4888065;29;20155;-74
2020/12/31 02:32:40;;;;;;;5.82;3.60;;;;;;;-0.22;83.33;99172.84;4908627;29;20031;-74
2020/12/31 02:35:05;;;;;;;4.32;4.00;;;;;;;-0.31;83.91;99165.31;4879035;29;20045;-76
2020/12/31 02:37:31;;;;;;;6.40;4.43;;;;;;;-0.14;84.04;99187.03;4894921;29;20025;-74
2020/12/31 02:40:01;;;;;;;3.97;3.78;;;;;;;-0.16;83.54;99191.78;4891430;29;20047;-74
2020/12/31 02:42:38;;;;;;;3.97;3.78;;;;;;;-0.32;83.39;99163.66;4881153;29;20032;-74
2020/12/31 02:46:07;;;;;;;7.05;5.18;;;;;;;-0.25;83.53;99181.38;4901308;29;20032;-74
2020/12/31 02:48:24;;;;;;;15.25;4.35;;;;;;;-0.33;83.73;99176.28;4902530;29;20115;-74
2020/12/31 02:50:52;;;;;;;4.22;3.85;;;;;;;-0.31;83.64;99178.75;4902531;29;20111;-75
2020/12/31 02:53:17;;;;;;;6.18;3.38;;;;;;;-0.35;84.30;99183.78;4898976;29;20040;-75
2020/12/31 02:55:43;;;;;;;4.05;3.25;;;;;;;-0.40;83.82;99173.69;4898129;29;20039;-75
2020/12/31 02:58:08;;;;;;;8.05;5.47;;;;;;;-0.40;84.06;99181.72;4902417;29;20047;-75
2020/12/31 03:00:37;;;;;;;3.47;3.22;;;;;;;-0.47;83.82;99170.25;4893430;29;20032;-75
2020/12/31 03:03:09;;;;;;;3.17;2.97;;;;;;;-0.51;84.35;99169.06;4877286;29;20511;-74
2020/12/31 03:05:37;;;;;;;3.10;2.90;;;;;;;-0.47;83.69;99180.19;4915897;29;20495;-75
2020/12/31 03:08:05;;;;;;;3.50;3.22;;;;;;;-0.54;83.76;99162.28;4914128;29;20044;-76
2020/12/31 03:10:32;;;;;;;5.03;3.88;;;;;;;-0.50;84.10;99164.50;4880807;29;20040;-75
2020/12/31 03:12:57;;;;;;;3.22;2.92;;;;;;;-0.54;84.16;99164.97;4882368;29;20044;-74
2020/12/31 03:15:23;;;;;;;3.28;3.08;;;;;;;-0.49;83.42;99177.72;4931798;29;20035;-73
2020/12/31 03:17:51;;;;;;;2.80;2.65;;;;;;;-0.50;84.32;99172.56;4919965;29;20535;-74
2020/12/31 03:20:20;;;;;;;2.50;2.17;;;;;;;-0.52;83.76;99180.03;4899887;29;20111;-74
2020/12/31 03:22:56;;;;;;;2.35;1.73;;;;;;;-0.50;84.06;99188.69;4899031;29;20119;-74
2020/12/31 03:25:32;;;;;;;3.13;2.92;;;;;;;-0.54;84.04;99186.44;4885546;29;20132;-74
2020/12/31 03:28:09;;;;;;;2.92;2.72;;;;;;;-0.54;84.31;99189.13;4899996;29;20079;-74
2020/12/31 03:30:36;;;;;;;5.00;2.55;;;;;;;-0.54;84.03;99186.44;4905066;29;20127;-74
2020/12/31 03:33:03;;;;;;;7.85;2.22;;;;;;;-0.49;84.05;99184.97;4906920;29;20036;-75
2020/12/31 03:35:58;;;;;;;2.97;2.78;;;;;;;-0.58;84.14;99171.81;4896394;29;20494;-75
2020/12/31 03:38:21;;;;;;;2.47;2.28;;;;;;;-0.56;83.61;99185.84;4900720;29;20460;-76
2020/12/31 03:40:47;;;;;;;6.13;4.50;;;;;;;-0.59;84.15;99178.22;4883256;29;20039;-76
2020/12/31 03:43:13;;;;;;;5.38;4.85;;;;;;;-0.55;84.09;99195.53;4910836;29;20094;-77
2020/12/31 03:45:42;;;;;;;5.13;4.70;;;;;;;-0.62;83.67;99185.94;4885610;29;20032;-76
2020/12/31 03:48:13;;;;;;;4.22;3.97;;;;;;;-0.58;83.72;99193.31;4905625;29;20115;-76
2020/12/31 03:50:39;;;;;;;16.20;5.20;;;;;;;-0.65;83.77;99186.38;4900518;29;20031;-76
2020/12/31 03:53:07;;;;;;;8.70;5.40;;;;;;;-0.57;84.00;99205.69;4893429;29;20044;-76
2020/12/31 03:55:38;;;;;;;5.97;4.38;;;;;;;-0.62;84.66;99186.72;4914765;29;20030;-76
2020/12/31 03:58:15;;;;;;;14.65;6.25;;;;;;;-0.57;84.05;99199.50;4892805;29;20463;-75
2020/12/31 04:00:43;;;;;;;4.10;3.80;;;;;;;-0.60;84.98;99198.09;4922032;29;20487;-78
2020/12/31 04:03:12;;;;;;;4.07;3.58;;;;;;;-0.62;83.83;99194.78;4883609;29;20520;-76
2020/12/31 04:05:57;;;;;;;8.05;4.22;;;;;;;-0.66;84.04;99196.28;4877267;29;20045;-77
2020/12/31 04:08:27;;;;;;;2.42;2.33;;;;;;;-0.67;83.96;99197.34;4890669;29;20514;-77
2020/12/31 04:11:01;;;;;;;4.47;2.05;;;;;;;-0.68;84.56;99197.56;4877863;29;20047;-75
2020/12/31 04:13:32;;;;;;;1.70;1.60;;;;;;;-0.71;84.61;99196.13;4889377;29;20036;-78
2020/12/31 04:16:08;;;;;;;2.10;2.00;;;;;;;-0.76;84.93;99190.59;4877426;29;20032;-76
2020/12/31 04:18:34;;;;;;;2.10;1.80;;;;;;;-0.73;84.90;99195.53;4882411;29;20085;-77
2020/12/31 04:20:59;;;;;;;2.50;1.85;;;;;;;-0.79;84.61;99183.84;4897250;29;20024;-77
2020/12/31 04:23:25;;;;;;;2.55;2.05;;;;;;;-0.76;84.65;99195.97;4885025;29;20123;-78
2020/12/31 04:25:53;;;;;;;5.10;1.50;;;;;;;-0.79;84.13;99183.84;4887749;29;20054;-78
2020/12/31 04:28:21;;;;;;;1.20;1.10;;;;;;;-0.85;84.82;99173.16;4883231;29;20033;-77
2020/12/31 04:30:50;;;;;;;1.90;1.35;;;;;;;-0.85;84.99;99175.84;4877594;29;20077;-77
2020/12/31 04:33:17;;;;;;;1.58;1.50;;;;;;;-0.80;84.19;99178.69;4892099;29;20051;-77
2020/12/31 04:35:42;;;;;;;4.15;1.33;;;;;;;-0.81;84.52;99177.03;4888773;29;20036;-79
2020/12/31 04:38:10;;;;;;;2.75;2.60;;;;;;;-0.80;84.44;99186.75;4876878;29;20388;-77
2020/12/31 04:40:51;;;;;;;3.42;3.13;;;;;;;-0.85;84.44;99175.84;4908491;29;20478;-76
2020/12/31 04:43:21;;;;;;;3.28;2.42;;;;;;;-0.89;83.87;99176.28;4893742;29;20059;-76
2020/12/31 04:45:49;;;;;;;6.95;3.50;;;;;;;-0.81;84.63;99182.41;4891471;29;20036;-77
2020/12/31 04:48:40;;;;;;;2.90;2.20;;;;;;;-0.80;84.19;99184.06;4889011;29;20055;-76
2020/12/31 04:51:07;;;;;;;3.10;2.85;;;;;;;-0.82;84.76;99170.00;4884085;29;20479;-75
2020/12/31 04:53:42;;;;;;;2.70;2.50;;;;;;;-0.73;84.84;99187.47;4876020;29;20104;-77
2020/12/31 04:56:19;;;;;;;4.15;3.75;;;;;;;-0.68;84.71;99192.19;4898429;29;20480;-76
2020/12/31 04:58:44;;;;;;;3.17;2.75;;;;;;;-0.67;84.63;99191.97;4877063;29;20032;-76
2020/12/31 05:01:20;;;;;;;3.30;2.92;;;;;;;-0.69;84.77;99185.97;4878591;29;20046;-77
2020/12/31 05:03:48;;;;;;;3.70;2.80;;;;;;;-0.65;84.58;99183.69;4887946;29;20049;-77
2020/12/31 05:06:18;;;;;;;5.03;3.50;;;;;;;-0.57;85.12;99184.22;4891841;29;20041;-77
2020/12/31 05:08:46;;;;;;;3.08;2.88;;;;;;;-0.41;85.29;99192.69;4894862;29;20115;-76
2020/12/31 05:11:14;;;;;;;4.22;3.83;;;;;;;-0.40;85.02;99180.91;4877922;29;20029;-76
2020/12/31 05:13:50;;;;;;;3.83;3.58;;;;;;;-0.28;85.17;99187.16;4883213;29;20542;-78
2020/12/31 05:16:28;;;;;;;;;;;;;;;-0.18;85.20;99208.16;4882745;29;20475;-78
2020/12/31 05:18:54;;;;;;;2.67;2.53;;;;;;;-0.14;85.35;99197.78;4903039;29;20038;-77
2020/12/31 05:21:23;;;;;;;6.97;5.72;;;;;;;-0.09;84.48;99196.06;4889305;29;20032;-77
2020/12/31 05:24:17;;;;;;;4.82;4.20;;;;;;;0.02;84.64;99207.91;4891157;29;20084;-77
2020/12/31 05:26:53;;;;;;;5.85;3.60;;;;;;;0.04;85.33;99199.59;4867366;29;20067;-77
2020/12/31 05:29:23;;;;;;;11.20;5.32;;;;;;;0.20;84.89;99203.53;4860384;29;20029;-78
2020/12/31 05:32:01;;;;;;;4.97;4.78;;;;;;;0.23;85.31;99200.38;4884018;29;20115;-77
2020/12/31 05:34:32;;;;;;;5.90;5.30;;;;;;;0.25;84.25;99199.13;4893305;29;20024;-77
2020/12/31 05:37:19;;;;;;;3.78;3.58;;;;;;;0.29;84.95;99207.53;4874102;29;20036;-78
2020/12/31 05:39:58;;;;;;;3.60;3.40;;;;;;;0.27;84.48;99205.06;4887733;29;20441;-76
2020/12/31 05:42:28;;;;;;;3.85;3.65;;;;;;;0.25;85.22;99191.06;4886172;29;20028;-77
2020/12/31 05:45:14;;;;;;;10.77;4.47;;;;;;;0.28;84.83;99195.16;4884515;29;20025;-77
2020/12/31 05:47:50;;;;;;;4.10;3.80;;;;;;;0.23;84.35;99195.81;4893580;29;20032;-77
2020/12/31 05:50:26;;;;;;;3.72;3.50;;;;;;;0.28;84.40;99203.22;4887261;29;20028;-78
2020/12/31 05:52:53;;;;;;;4.60;4.30;;;;;;;0.29;85.22;99202.16;4902646;29;20037;-77
2020/12/31 05:55:32;;;;;;;5.82;5.43;;;;;;;0.35;84.44;99209.31;4899705;29;20025;-77
2020/12/31 05:57:57;;;;;;;7.47;5.88;;;;;;;0.36;84.29;99208.25;4893860;29;20037;-78
2020/12/31 06:00:28;;;;;;;7.13;4.95;;;;;;;0.23;84.40;99193.13;4891534;29;20029;-77
2020/12/31 06:02:59;;;;;;;6.50;5.68;;;;;;;0.38;84.22;99211.56;4890586;29;20105;-76
2020/12/31 06:05:25;;;;;;;5.35;4.93;;;;;;;0.39;84.19;99207.81;4906553;29;20036;-77
2020/12/31 06:07:58;;;;;;;5.57;5.18;;;;;;;0.32;83.96;99207.06;4874466;29;20131;-76
2020/12/31 06:10:31;;;;;;;3.90;3.60;;;;;;;0.32;84.07;99207.06;4892858;29;20088;-78
2020/12/31 06:13:21;;;;;;;4.28;3.95;;;;;;;0.42;83.74;99215.41;4900681;29;20030;-77
2020/12/31 06:15:49;;;;;;;6.18;5.57;;;;;;;0.44;84.73;99213.31;4890007;29;20493;-77
2020/12/31 06:18:38;;;;;;;6.45;5.85;;;;;;;0.46;84.79;99210.41;4894724;29;20103;-77
2020/12/31 06:21:28;;;;;;;5.93;4.55;;;;;;;0.39;84.55;99204.31;4887665;29;20032;-76
2020/12/31 06:24:08;;;;;;;4.55;4.28;;;;;;;0.56;84.16;99223.31;4905736;29;20033;-77
2020/12/31 06:26:54;;;;;;;5.25;4.85;;;;;;;0.63;84.99;99227.53;4893049;29;20016;-77
2020/12/31 06:29:27;;;;;;;6.35;5.05;;;;;;;0.64;85.08;99231.88;4890274;29;20420;-78
2020/12/31 06:31:58;;;;;;;4.85;4.60;;;;;;;0.68;84.78;99229.53;4872162;29;20033;-76
2020/12/31 06:34:27;;;;;;;4.20;3.80;;;;;;;0.66;84.38;99216.31;4911556;29;20458;-77
2020/12/31 06:36:56;;;;;;;3.47;3.22;;;;;;;0.75;83.90;99227.56;4878774;29;20068;-76
2020/12/31 06:39:24;;;;;;;4.15;3.75;;;;;;;0.83;83.96;99245.22;4892671;29;20162;-77
2020/12/31 06:41:56;;;;;;;5.30;4.05;;;;;;;0.84;84.07;99242.31;4897667;29;20068;-76
2020/12/31 06:44:32;;;;;;;3.33;3.13;;;;;;;0.91;85.05;99241.41;4907495;29;20036;-75
2020/12/31 06:46:58;;;;;;;3.92;3.70;;;;;;;0.94;84.97;99246.31;4891586;29;20091;-78
2020/12/31 06:49:53;;;;;;;3.92;3.72;;;;;;;1.00;84.38;99248.09;4894554;29;20116;-76
2020/12/31 06:52:27;;;;;;;4.60;4.18;;;;;;;1.03;84.48;99244.91;4892305;29;20035;-76
2020/12/31 06:55:02;;;;;;;4.00;3.80;;;;;;;1.03;83.92;99256.50;4909071;29;20032;-77
2020/12/31 06:57:39;;;;;;;3.75;3.45;;;;;;;0.96;84.56;99244.22;4886636;29;20033;-76
2020/12/31 07:00:30;;;;;;;3.80;3.58;;;;;;;0.99;84.54;99249.97;4872775;29;20029;-78
2020/12/31 07:02:58;;;;;;;3.00;2.70;;;;;;;0.97;84.31;99241.28;4887787;29;20128;-78
2020/12/31 07:05:26;;;;;;;3.03;2.92;;;;;;;0.96;84.20;99252.28;4882796;29;20029;-78
2020/12/31 07:08:01;;;;;;;3.05;2.85;;;;;;;0.97;83.75;99251.25;4888153;29;20032;-78
2020/12/31 07:10:47;;;;;;;;;;;;;;;0.96;82.93;99249.59;4899694;29;20038;-77
2020/12/31 07:13:40;;;;;;;1.75;1.58;;;;;;;0.85;83.33;99260.09;4890439;29;19915;-77
2020/12/31 07:16:09;;;;;;;2.22;1.83;;;;;;;0.75;83.51;99249.09;4891074;29;20456;-78
2020/12/31 07:18:59;;;;;;;2.45;2.35;;;;;;;0.81;84.24;99258.94;4885722;29;20027;-77
2020/12/31 07:21:37;;;;;;;1.42;1.42;;;;;;;0.86;84.63;99260.91;4893345;29;20385;-77
2020/12/31 07:24:24;;;;;;;3.17;3.05;;;;;;;0.85;83.44;99260.09;4895777;29;20024;-77
2020/12/31 07:26:54;;;;;;;1.25;1.25;;;;;;;0.84;84.77;99269.22;4895442;29;20024;-80
2020/12/31 07:29:43;;;;;;;1.70;1.60;;;;;;;0.91;84.48;99281.78;4873752;29;20029;-78
2020/12/31 07:32:09;;;;;;;2.25;2.15;;;;;;;0.90;84.07;99283.63;4889645;29;20044;-76
2020/12/31 07:34:34;;;;;;;1.40;1.13;;;;;;;0.86;83.15;99288.69;4910604;29;20025;-79
2020/12/31 07:37:14;;;;;;;1.05;1.05;;;;;;;0.89;84.19;99283.88;4875297;29;20127;-77
2020/12/31 07:39:44;;;;;;;4.10;1.77;;;;;;;0.85;83.71;99286.22;4894803;29;20104;-78
2020/12/31 07:42:56;;;;;;;2.10;2.00;;;;;;;0.85;83.99;99288.91;4881033;29;20047;-79
2020/12/31 07:45:18;;;;;;;2.95;2.08;;;;;;;0.80;83.73;99281.50;4886478;29;20049;-78
2020/12/31 07:47:49;;;;;;;0.98;0.98;;;;;;;0.74;83.39;99285.13;4905491;29;20057;-78
2020/12/31 07:50:14;;;;;;;1.38;1.27;;;;;;;0.73;83.69;99280.81;4899694;29;20080;-78
2020/12/31 07:52:42;;;;;;;4.40;3.20;;;;;;;0.72;83.00;99281.84;4880634;29;20437;-76
2020/12/31 07:55:10;;;;;;;2.15;2.05;;;;;;;0.63;82.67;99294.00;4883443;29;20043;-75
2020/12/31 07:57:39;;;;;;;2.90;2.80;;;;;;;0.57;83.74;99290.34;4899920;29;20028;-80
2020/12/31 08:00:06;;;;;;;2.30;2.20;;;;;;;0.43;83.29;99284.31;4918988;29;20021;-79
2020/12/31 08:02:35;;;;;;;2.72;2.63;;;;;;;0.36;83.19;99299.69;4893940;29;20048;-74
2020/12/31 08:05:11;;;;;;;1.30;1.30;;;;;;;0.39;82.71;99310.00;4903540;29;20041;-78
2020/12/31 08:07:49;;;;;;;0.98;0.98;;;;;;;0.30;83.77;99308.69;4909226;29;20047;-76
2020/12/31 08:10:15;;;;;;;1.33;1.23;;;;;;;0.19;83.13;99304.06;4903562;29;20105;-80
2020/12/31 08:12:52;;;;;;;1.42;1.30;;;;;;;0.15;83.00;99306.38;4890586;29;20059;-77
2020/12/31 08:15:20;;;;;;;1.50;1.40;;;;;;;0.08;82.70;99308.34;4922412;29;20028;-81
2020/12/31 08:18:19;;;;;;;;;;;;;;;;;;;;;
2020/12/31 08:20:48;;;;;;;0.82;0.82;;;;;;;-0.01;83.83;99310.50;4891094;29;20115;-78
2020/12/31 08:23:37;;;;;;;0.98;0.98;;;;;;;-0.07;83.15;99303.34;4894369;29;20032;-80
2020/12/31 08:26:24;;;;;;;0.90;0.90;;;;;;;-0.07;83.73;99306.03;4887723;29;20047;-79
2020/12/31 08:28:49;;;;;;;0.90;0.90;;;;;;;-0.13;83.62;99312.28;4913331;29;20039;-81
2020/12/31 08:31:25;;;;;;;0.82;0.73;;;;;;;-0.02;83.10;99330.34;4894464;29;20112;-80
2020/12/31 08:34:07;;;;;;;1.10;1.08;;;;;;;-0.20;82.94;99318.53;4887809;29;20533;-81
2020/12/31 08:36:42;;;;;;;0.98;0.98;;;;;;;-0.20;82.51;99336.53;4908817;29;20093;-82
2020/12/31 08:39:19;;;;;;;1.98;1.30;;;;;;;-0.42;82.35;99314.66;4909238;29;20060;-78
2020/12/31 08:42:06;;;;;;;0.82;0.82;;;;;;;-0.53;83.05;99313.47;4905985;29;20085;-82
2020/12/31 08:44:41;;;;;;;0.60;0.60;;;;;;;-0.58;82.14;99322.22;4898071;29;20085;-81
2020/12/31 08:47:17;;;;;;;0.68;0.68;;;;;;;-0.58;82.80;99326.78;4912552;29;20024;-79
2020/12/31 08:49:55;;;;;;;1.75;0.63;;;;;;;-0.63;83.17;99323.91;4895191;29;20037;-80
2020/12/31 08:52:25;;;;;;;1.17;1.08;;;;;;;-0.64;82.73;99328.47;4911361;29;20454;-79
2020/12/31 08:55:11;;;;;;;0.88;0.88;;;;;;;-0.62;83.57;99320.19;4903387;29;20032;-81
2020/12/31 08:57:43;;;;;;;3.55;3.38;;;;;;;-0.62;82.97;99326.38;4904906;29;20025;-81
2020/12/31 09:00:09;;;;;;;2.20;2.10;;;;;;;-0.74;84.01;99303.97;4895416;29;20032;-79
2020/12/31 09:03:40;;;;;;;1.33;1.25;;;;;;;-0.46;84.10;99330.38;4908428;29;20540;-81
2020/12/31 09:05:40;;;;;;;0.70;0.70;;;;;;;-0.55;84.01;99304.84;4888715;29;20403;-80
2020/12/31 09:08:15;;;;;;;0.73;0.73;;;;;;;-0.34;84.63;99314.34;4884748;29;20024;-81
2020/12/31 09:10:46;;;;;;;0.50;0.50;;;;;;;-0.14;83.62;99330.28;4884014;29;20487;-80
2020/12/31 09:13:24;;;;;;;0.70;0.70;;;;;;;0.08;83.55;99336.03;4890416;29;20025;-80
2020/12/31 09:16:16;;;;;;;0.80;0.63;;;;;;;0.17;84.12;99333.84;4899507;29;20467;-80
2020/12/31 09:18:50;;;;;;;0.40;0.40;;;;;;;0.40;84.49;99354.69;4893474;29;20125;-78
2020/12/31 09:21:40;;;;;;;1.27;1.27;;;;;;;0.60;84.23;99353.59;4895961;29;20035;-80
2020/12/31 09:24:34;;;;;;;0.60;0.60;;;;;;;0.90;83.53;99345.56;4915960;29;20060;-80
2020/12/31 09:27:02;;;;;;;0.43;0.43;;;;;;;1.17;83.91;99327.13;4902636;29;20039;-80
2020/12/31 09:29:46;;;;;;;0.63;0.63;;;;;;;1.52;84.02;99337.13;4893645;29;20033;-79
2020/12/31 09:32:19;;;;;;;0.40;0.30;;;;;;;1.78;82.20;99343.09;4899996;29;20119;-80
2020/12/31 09:35:03;;;;;;;0.43;0.43;;;;;;;1.97;82.90;99348.38;4914536;29;20168;-80
2020/12/31 09:38:17;;;;;;;0.45;0.45;;;;;;;2.22;82.14;99359.75;4895778;29;20033;-79
2020/12/31 09:40:55;;;;;;;0.35;0.35;;;;;;;2.31;81.50;99367.44;4862688;29;20052;-78
2020/12/31 09:43:37;;;;;;;0.52;0.52;;;;;;;2.36;81.99;99354.06;4860114;29;20064;-79
2020/12/31 09:46:02;;;;;;;0.40;0.40;;;;;;;2.48;81.54;99352.16;4857912;29;20069;-80
2020/12/31 09:48:27;;;;;;;4.13;0.90;;;;;;;2.73;80.95;99369.91;4872475;29;20060;-77
2020/12/31 09:50:56;;;;;;;0.70;0.70;;;;;;;2.72;80.63;99366.41;4902543;29;20037;-79
2020/12/31 09:53:32;;;;;;;0.47;0.47;;;;;;;2.79;80.97;99374.38;4900163;29;20415;-80
2020/12/31 09:55:58;;;;;;;0.73;0.73;;;;;;;2.85;81.75;99384.22;4902316;29;20040;-79
2020/12/31 09:58:23;;;;;;;0.68;0.68;;;;;;;2.93;81.43;99369.50;4882706;29;20092;-78
2020/12/31 10:00:52;;;;;;;0.50;0.30;;;;;;;3.22;81.48;99370.28;4887431;29;20029;-80
2020/12/31 10:03:18;;;;;;;1.08;1.08;;;;;;;3.48;81.46;99363.44;4905440;29;20063;-81
2020/12/31 10:08:31;;;;;;;0.93;0.93;;;;;;;4.27;80.29;99372.44;4901688;29;20044;-81
2020/12/31 10:11:20;;;;;;;1.90;1.80;;;;;;;4.74;79.14;99381.16;4894701;29;20031;-80
2020/12/31 10:13:46;;;;;;;1.95;1.85;;;;;;;5.03;78.69;99379.84;4908112;29;20109;-79
2020/12/31 10:16:36;;;;;;;2.58;2.47;;;;;;;5.56;77.17;99392.81;4907604;29;20024;-78
2020/12/31 10:19:11;;;;;;;1.42;1.33;;;;;;;5.72;76.44;99391.91;4914238;29;20039;-78
2020/12/31 10:21:47;;;;;;;;;;;;;;;;;;;;;
2020/12/31 10:24:14;;;;;;;0.70;0.70;;;;;;;6.29;76.22;99382.25;4906309;29;20094;-78
2020/12/31 10:27:12;;;;;;;0.52;0.52;;;;;;;6.87;76.27;99383.31;4905145;29;20052;-81
2020/12/31 10:29:40;;;;;;;0.60;0.57;;;;;;;7.38;75.52;99388.88;4904873;29;20108;-78
2020/12/31 10:32:29;;;;;;;0.50;0.50;;;;;;;7.78;75.02;99378.25;4893244;29;20029;-78
2020/12/31 10:34:54;;;;;;;1.00;0.90;;;;;;;8.31;73.64;99373.28;4904784;29;20027;-79
2020/12/31 10:37:29;;;;;;;0.50;0.50;;;;;;;9.30;74.00;99373.66;4916581;29;20067;-80
2020/12/31 10:39:54;;;;;;;0.52;0.50;;;;;;;10.50;71.51;99375.91;4915146;29;20024;-81
2020/12/31 10:42:33;;;;;;;;;;;;;;;;;;;;;
2020/12/31 10:45:17;;;;;;;0.90;0.90;;;;;;;13.25;66.97;99382.75;4903367;29;20124;-81
2020/12/31 10:47:50;;;;;;;0.93;0.93;;;;;;;14.16;63.58;99391.03;4902808;29;20032;-82
2020/12/31 10:50:33;;;;;;;0.80;0.80;;;;;;;15.16;62.42;99404.19;4899908;29;20036;-80
2020/12/31 10:53:33;;;;;;;2.72;2.53;;;;;;;16.08;61.38;99383.13;4912806;29;20028;-81
2020/12/31 10:56:20;;;;;;;1.45;1.35;;;;;;;16.66;60.35;99396.53;4916798;29;20099;-81
2020/12/31 10:58:47;;;;;;;1.48;0.82;;;;;;;17.36;59.83;99407.19;4914975;29;20122;-80
2020/12/31 11:01:14;;;;;;;1.85;1.67;;;;;;;17.66;59.35;99404.38;4916524;29;20481;-81
2020/12/31 11:03:44;;;;;;;1.48;0.93;;;;;;;17.97;58.96;99387.34;4899644;29;20048;-81
2020/12/31 11:06:22;;;;;;;1.23;1.20;;;;;;;18.31;58.69;99382.56;4915361;29;20031;-80
2020/12/31 11:09:08;;;;;;;0.95;0.88;;;;;;;18.91;58.32;99385.78;4919018;29;20025;-80
2020/12/31 11:11:40;;;;;;;1.10;0.98;;;;;;;19.56;57.63;99382.16;4913557;29;20032;-80
2020/12/31 11:14:15;;;;;;;0.45;0.30;;;;;;;20.28;56.22;99395.25;4901811;29;20024;-78
2020/12/31 11:17:20;;;;;;;;;;;;;;;;;;;;;
2020/12/31 11:19:54;;;;;;;0.63;0.63;;;;;;;21.36;54.76;99397.84;4914694;29;20120;-79
2020/12/31 11:22:19;;;;;;;0.40;0.40;;;;;;;21.43;54.97;99389.63;4912963;29;20040;-79
2020/12/31 11:24:48;;;;;;;0.55;0.55;;;;;;;21.78;54.86;99402.72;4917179;29;20511;-79
2020/12/31 11:27:16;;;;;;;0.40;0.40;;;;;;;21.99;54.38;99384.03;4901980;29;20055;-81
2020/12/31 11:29:51;;;;;;;0.45;0.40;;;;;;;22.34;54.59;99389.50;4909673;29;20050;-82
2020/12/31 11:32:22;;;;;;;0.33;0.33;;;;;;;22.58;53.94;99393.06;4925063;29;20035;-80
2020/12/31 11:34:57;;;;;;;0.40;0.22;;;;;;;22.70;54.09;99395.66;4894199;29;20095;-80
2020/12/31 11:37:24;;;;;;;0.50;0.50;;;;;;;22.93;53.95;99387.25;4920186;29;20103;-81
2020/12/31 11:39:52;;;;;;;0.60;0.60;;;;;;;23.22;53.41;99372.94;4919745;29;20036;-81
2020/12/31 11:42:25;;;;;;;1.02;0.98;;;;;;;23.71;53.24;99377.56;4920429;29;20031;-81
2020/12/31 11:44:51;;;;;;;0.80;0.80;;;;;;;24.20;52.48;99378.53;4904493;29;20116;-82
2020/12/31 11:47:19;;;;;;;0.80;0.70;;;;;;;24.78;51.61;99385.44;4908657;29;20047;-81
2020/12/31 11:49:44;;;;;;;0.63;0.63;;;;;;;25.24;50.49;99378.53;4910641;29;20032;-80
2020/12/31 11:52:14;;;;;;;1.08;0.90;;;;;;;25.23;49.77;99372.16;4899017;29;20039;-79
2020/12/31 11:54:42;;;;;;;0.60;0.60;;;;;;;25.23;48.72;99377.75;4908211;29;20111;-82
2020/12/31 11:57:10;;;;;;;0.40;0.40;;;;;;;25.35;49.39;99367.44;4902324;29;20036;-82
2020/12/31 11:59:46;;;;;;;;;;;;;;;;;;;;;
2020/12/31 12:02:14;;;;;;;4.40;1.77;;;;;;;26.16;41.99;99361.75;4922445;29;20107;-81
2020/12/31 12:04:47;;;;;;;1.58;1.48;;;;;;;25.89;39.21;99351.66;4908826;29;20035;-83
2020/12/31 12:07:23;;;;;;;1.27;1.17;;;;;;;25.87;39.92;99368.03;4919808;29;20066;-75
2020/12/31 12:09:51;;;;;;;0.88;0.85;;;;;;;25.87;42.25;99373.63;4882402;29;20041;-76
2020/12/31 12:12:33;;;;;;;0.40;0.40;;;;;;;26.42;42.43;99371.78;4908866;29;20043;-76
2020/12/31 12:14:59;;;;;;;1.23;1.17;;;;;;;26.64;42.02;99364.94;4908055;29;20037;-76
2020/12/31 12:17:52;;;;;;;0.77;0.77;;;;;;;27.03;42.30;99360.53;4890436;29;20088;-76
2020/12/31 12:20:20;;;;;;;0.60;0.60;;;;;;;27.21;41.66;99362.50;4900744;29;20119;-76
2020/12/31 12:26:12;;;;;;;0.60;0.60;;;;;;;27.82;40.01;99354.66;4912871;29;20490;-76
2020/12/31 12:28:40;;;;;;;0.70;0.70;;;;;;;27.92;38.92;99358.59;4899418;29;20429;-76
2020/12/31 12:31:15;;;;;;;0.20;0.20;;;;;;;28.08;40.58;99346.91;4913834;29;20032;-76
2020/12/31 12:33:43;;;;;;;0.20;0.17;;;;;;;28.70;40.38;99367.72;4913229;29;20127;-77
2020/12/31 12:36:11;;;;;;;0.70;0.40;;;;;;;28.95;37.37;99352.59;4904524;29;20364;-75